Time,TemperatureF,DewpointF,PressureIn,WindDirection,WindDirectionDegrees,WindSpeedMPH,WindSpeedGustMPH,Humidity,HourlyPrecipIn,Conditions,Clouds,dailyrainin,SoftwareType,DateUTC
2013-03-25 00:33:00,21.0,21.0,-100.00,WSW,245,13.0,15.0,97,-99.99,,,-99.99,,2013-03-25 05:33:00,
2013-03-25 00:42:00,21.0,21.0,-100.00,WSW,245,13.0,15.0,97,-99.99,,,-99.99,,2013-03-25 05:42:00,
2013-03-25 00:52:00,21.0,21.0,-100.00,WSW,245,13.0,15.0,97,-99.99,,,-99.99,,2013-03-25 05:52:00,
2013-03-25 01:02:00,21.0,21.0,-100.00,WSW,245,13.0,15.0,97,-99.99,,,-99.99,,2013-03-25 06:02:00,
2013-03-25 01:33:00,21.0,20.0,-100.00,WSW,245,12.0,14.0,96,-99.99,,,-99.99,,2013-03-25 06:33:00,
2013-03-25 01:42:00,21.0,20.0,-100.00,WSW,245,12.0,14.0,96,-99.99,,,-99.99,,2013-03-25 06:42:00,
2013-03-25 01:52:00,21.0,20.0,-100.00,WSW,245,12.0,14.0,96,-99.99,,,-99.99,,2013-03-25 06:52:00,
2013-03-25 02:02:00,21.0,20.0,-100.00,WSW,245,12.0,14.0,96,-99.99,,,-99.99,,2013-03-25 07:02:00,
2013-03-25 02:32:00,21.0,20.0,-100.00,WSW,245,10.0,12.0,97,-99.99,,,-99.99,,2013-03-25 07:32:00,
2013-03-25 02:42:00,21.0,20.0,-100.00,WSW,245,10.0,12.0,97,-99.99,,,-99.99,,2013-03-25 07:42:00,
2013-03-25 02:53:00,21.0,20.0,-100.00,WSW,245,10.0,12.0,97,-99.99,,,-99.99,,2013-03-25 07:53:00,
2013-03-25 03:02:00,21.0,20.0,-100.00,WSW,245,10.0,12.0,97,-99.99,,,-99.99,,2013-03-25 08:02:00,
2013-03-25 03:32:00,21.0,21.0,-100.00,WSW,245,11.0,12.0,99,-99.99,,,-99.99,,2013-03-25 08:32:00,
2013-03-25 03:43:00,21.0,21.0,-100.00,WSW,245,11.0,12.0,99,-99.99,,,-99.99,,2013-03-25 08:43:00,
2013-03-25 03:52:00,21.0,21.0,-100.00,WSW,245,11.0,12.0,99,-99.99,,,-99.99,,2013-03-25 08:52:00,
2013-03-25 04:02:00,21.0,21.0,-100.00,WSW,245,11.0,12.0,99,-99.99,,,-99.99,,2013-03-25 09:02:00,
2013-03-25 04:33:00,21.0,21.0,-100.00,WSW,245,12.0,13.0,99,-99.99,,,-99.99,,2013-03-25 09:33:00,
2013-03-25 04:43:00,21.0,21.0,-100.00,WSW,245,12.0,13.0,99,-99.99,,,-99.99,,2013-03-25 09:43:00,
2013-03-25 04:53:00,21.0,21.0,-100.00,WSW,245,12.0,13.0,99,-99.99,,,-99.99,,2013-03-25 09:53:00,
2013-03-25 05:03:00,21.0,21.0,-100.00,WSW,245,12.0,13.0,99,-99.99,,,-99.99,,2013-03-25 10:03:00,
2013-03-25 05:33:00,21.0,21.0,-100.00,NW,325,14.0,16.0,99,-99.99,,,-99.99,,2013-03-25 10:33:00,
2013-03-25 05:43:00,21.0,21.0,-100.00,NW,325,14.0,16.0,99,-99.99,,,-99.99,,2013-03-25 10:43:00,
2013-03-25 05:54:00,21.0,21.0,-100.00,NW,325,14.0,16.0,99,-99.99,,,-99.99,,2013-03-25 10:54:00,
2013-03-25 06:03:00,21.0,21.0,-100.00,NW,325,14.0,16.0,99,-99.99,,,-99.99,,2013-03-25 11:03:00,
2013-03-25 06:32:00,21.0,20.0,-100.00,WSW,245,11.0,13.0,99,-99.99,,,-99.99,,2013-03-25 11:32:00,
2013-03-25 06:42:00,21.0,20.0,-100.00,WSW,245,11.0,13.0,99,-99.99,,,-99.99,,2013-03-25 11:42:00,
2013-03-25 06:53:00,21.0,20.0,-100.00,WSW,245,11.0,13.0,99,-99.99,,,-99.99,,2013-03-25 11:53:00,
2013-03-25 07:02:00,21.0,20.0,-100.00,WSW,245,11.0,13.0,99,-99.99,,,-99.99,,2013-03-25 12:02:00,
2013-03-25 07:33:00,20.0,20.0,-100.00,WSW,245,14.0,16.0,97,-99.99,,,-99.99,,2013-03-25 12:33:00,
2013-03-25 07:43:00,20.0,20.0,-100.00,WSW,245,14.0,16.0,97,-99.99,,,-99.99,,2013-03-25 12:43:00,
2013-03-25 07:53:00,20.0,20.0,-100.00,WSW,245,14.0,16.0,97,-99.99,,,-99.99,,2013-03-25 12:53:00,
2013-03-25 08:02:00,20.0,20.0,-100.00,WSW,245,14.0,16.0,97,-99.99,,,-99.99,,2013-03-25 13:02:00,
2013-03-25 08:10:00,20.0,20.0,-100.00,WSW,245,11.0,12.0,99,-99.99,,,-99.99,,2013-03-25 13:10:00,
2013-03-25 08:32:00,20.0,20.0,-100.00,WSW,245,11.0,12.0,99,-99.99,,,-99.99,,2013-03-25 13:32:00,
2013-03-25 08:43:00,20.0,20.0,-100.00,WSW,245,11.0,12.0,99,-99.99,,,-99.99,,2013-03-25 13:43:00,
2013-03-25 08:52:00,20.0,20.0,-100.00,WSW,245,11.0,12.0,99,-99.99,,,-99.99,,2013-03-25 13:52:00,
2013-03-25 09:03:00,20.0,20.0,-100.00,WSW,245,11.0,12.0,99,-99.99,,,-99.99,,2013-03-25 14:03:00,
2013-03-25 09:10:00,20.0,20.0,-100.00,NNW,345,12.0,15.0,98,-99.99,,,-99.99,,2013-03-25 14:10:00,
2013-03-25 09:32:00,20.0,20.0,-100.00,NNW,345,12.0,15.0,98,-99.99,,,-99.99,,2013-03-25 14:32:00,
2013-03-25 09:43:00,20.0,20.0,-100.00,NNW,345,12.0,15.0,98,-99.99,,,-99.99,,2013-03-25 14:43:00,
2013-03-25 09:53:00,20.0,20.0,-100.00,NNW,345,12.0,15.0,98,-99.99,,,-99.99,,2013-03-25 14:53:00,
2013-03-25 10:02:00,20.0,20.0,-100.00,NNW,345,12.0,15.0,98,-99.99,,,-99.99,,2013-03-25 15:02:00,
2013-03-25 10:11:00,21.0,20.0,-100.00,WSW,245,12.0,14.0,96,-99.99,,,-99.99,,2013-03-25 15:11:00,
2013-03-25 10:33:00,21.0,20.0,-100.00,WSW,245,12.0,14.0,96,-99.99,,,-99.99,,2013-03-25 15:33:00,
2013-03-25 10:43:00,21.0,20.0,-100.00,WSW,245,12.0,14.0,96,-99.99,,,-99.99,,2013-03-25 15:43:00,
2013-03-25 10:53:00,21.0,20.0,-100.00,WSW,245,12.0,14.0,96,-99.99,,,-99.99,,2013-03-25 15:53:00,
2013-03-25 11:03:00,21.0,20.0,-100.00,WSW,245,12.0,14.0,96,-99.99,,,-99.99,,2013-03-25 16:03:00,
2013-03-25 11:33:00,22.0,21.0,-100.00,WSW,245,14.0,16.0,95,-99.99,,,-99.99,,2013-03-25 16:33:00,
2013-03-25 11:43:00,22.0,21.0,-100.00,WSW,245,14.0,16.0,95,-99.99,,,-99.99,,2013-03-25 16:43:00,
2013-03-25 11:53:00,22.0,21.0,-100.00,WSW,245,14.0,16.0,95,-99.99,,,-99.99,,2013-03-25 16:53:00,
2013-03-25 12:02:00,22.0,21.0,-100.00,WSW,245,14.0,16.0,95,-99.99,,,-99.99,,2013-03-25 17:02:00,
2013-03-25 12:10:00,24.0,23.0,-100.00,WSW,245,9.0,11.0,94,-99.99,,,-99.99,,2013-03-25 17:10:00,
2013-03-25 12:33:00,24.0,23.0,-100.00,WSW,245,9.0,11.0,94,-99.99,,,-99.99,,2013-03-25 17:33:00,
2013-03-25 12:43:00,24.0,23.0,-100.00,WSW,245,9.0,11.0,94,-99.99,,,-99.99,,2013-03-25 17:43:00,
2013-03-25 12:53:00,24.0,23.0,-100.00,WSW,245,9.0,11.0,94,-99.99,,,-99.99,,2013-03-25 17:53:00,
2013-03-25 13:03:00,24.0,23.0,-100.00,WSW,245,9.0,11.0,94,-99.99,,,-99.99,,2013-03-25 18:03:00,
2013-03-25 13:33:00,26.0,23.0,-100.00,WSW,245,10.0,13.0,91,-99.99,,,-99.99,,2013-03-25 18:33:00,
2013-03-25 13:43:00,26.0,23.0,-100.00,WSW,245,10.0,13.0,91,-99.99,,,-99.99,,2013-03-25 18:43:00,
2013-03-25 13:53:00,26.0,23.0,-100.00,WSW,245,10.0,13.0,91,-99.99,,,-99.99,,2013-03-25 18:53:00,
2013-03-25 14:03:00,26.0,23.0,-100.00,WSW,245,10.0,13.0,91,-99.99,,,-99.99,,2013-03-25 19:03:00,
2013-03-25 14:33:00,25.0,22.0,-100.00,North,0,15.0,17.0,86,-99.99,,,-99.99,,2013-03-25 19:33:00,
2013-03-25 14:43:00,25.0,22.0,-100.00,North,0,15.0,17.0,86,-99.99,,,-99.99,,2013-03-25 19:43:00,
2013-03-25 14:52:00,25.0,22.0,-100.00,North,0,15.0,17.0,86,-99.99,,,-99.99,,2013-03-25 19:52:00,
2013-03-25 15:02:00,25.0,22.0,-100.00,North,0,15.0,17.0,86,-99.99,,,-99.99,,2013-03-25 20:02:00,
2013-03-25 15:32:00,26.0,22.0,-100.00,WSW,245,12.0,14.0,84,-99.99,,,-99.99,,2013-03-25 20:32:00,
2013-03-25 15:42:00,26.0,22.0,-100.00,WSW,245,12.0,14.0,84,-99.99,,,-99.99,,2013-03-25 20:42:00,
2013-03-25 15:52:00,26.0,22.0,-100.00,WSW,245,12.0,14.0,84,-99.99,,,-99.99,,2013-03-25 20:52:00,
2013-03-25 16:02:00,26.0,22.0,-100.00,WSW,245,12.0,14.0,84,-99.99,,,-99.99,,2013-03-25 21:02:00,
2013-03-25 16:33:00,26.0,21.0,-100.00,WSW,245,9.0,10.0,82,-99.99,,,-99.99,,2013-03-25 21:33:00,
2013-03-25 16:43:00,26.0,21.0,-100.00,WSW,245,9.0,10.0,82,-99.99,,,-99.99,,2013-03-25 21:43:00,
2013-03-25 16:52:00,26.0,21.0,-100.00,WSW,245,9.0,10.0,82,-99.99,,,-99.99,,2013-03-25 21:52:00,
2013-03-25 17:03:00,26.0,21.0,-100.00,WSW,245,9.0,10.0,82,-99.99,,,-99.99,,2013-03-25 22:03:00,
2013-03-25 17:33:00,25.0,20.0,-100.00,WSW,245,9.0,11.0,81,-99.99,,,-99.99,,2013-03-25 22:33:00,
2013-03-25 17:43:00,25.0,20.0,-100.00,WSW,245,9.0,11.0,81,-99.99,,,-99.99,,2013-03-25 22:43:00,
2013-03-25 17:52:00,25.0,20.0,-100.00,WSW,245,9.0,11.0,81,-99.99,,,-99.99,,2013-03-25 22:52:00,
2013-03-25 18:03:00,25.0,20.0,-100.00,WSW,245,9.0,11.0,81,-99.99,,,-99.99,,2013-03-25 23:03:00,
2013-03-25 18:33:00,24.0,18.0,-100.00,WSW,245,7.0,8.0,80,-99.99,,,-99.99,,2013-03-25 23:33:00,
2013-03-25 18:43:00,24.0,18.0,-100.00,WSW,245,7.0,8.0,80,-99.99,,,-99.99,,2013-03-25 23:43:00,
2013-03-25 18:53:00,24.0,18.0,-100.00,WSW,245,7.0,8.0,80,-99.99,,,-99.99,,2013-03-25 23:53:00,
2013-03-25 19:02:00,24.0,18.0,-100.00,WSW,245,7.0,8.0,80,-99.99,,,-99.99,,2013-03-26 00:02:00,
2013-03-25 19:10:00,22.0,17.0,-100.00,WSW,245,6.0,6.0,83,-99.99,,,-99.99,,2013-03-26 00:10:00,
2013-03-25 19:33:00,22.0,17.0,-100.00,WSW,245,6.0,6.0,83,-99.99,,,-99.99,,2013-03-26 00:33:00,
2013-03-25 19:43:00,22.0,17.0,-100.00,WSW,245,6.0,6.0,83,-99.99,,,-99.99,,2013-03-26 00:43:00,
2013-03-25 19:52:00,22.0,17.0,-100.00,WSW,245,6.0,6.0,83,-99.99,,,-99.99,,2013-03-26 00:52:00,
2013-03-25 20:02:00,22.0,17.0,-100.00,WSW,245,6.0,6.0,83,-99.99,,,-99.99,,2013-03-26 01:02:00,
2013-03-25 20:10:00,18.0,15.0,-100.00,WNW,300,6.0,6.0,89,-99.99,,,-99.99,,2013-03-26 01:10:00,
2013-03-25 20:33:00,18.0,15.0,-100.00,WNW,300,6.0,6.0,89,-99.99,,,-99.99,,2013-03-26 01:33:00,
2013-03-25 20:42:00,18.0,15.0,-100.00,WNW,300,6.0,6.0,89,-99.99,,,-99.99,,2013-03-26 01:42:00,
2013-03-25 20:52:00,18.0,15.0,-100.00,WNW,300,6.0,6.0,89,-99.99,,,-99.99,,2013-03-26 01:52:00,
2013-03-25 21:02:00,18.0,15.0,-100.00,WNW,300,6.0,6.0,89,-99.99,,,-99.99,,2013-03-26 02:02:00,
2013-03-25 21:10:00,17.0,14.0,-100.00,WNW,300,6.0,7.0,88,-99.99,,,-99.99,,2013-03-26 02:10:00,
2013-03-25 21:32:00,17.0,14.0,-100.00,WNW,300,6.0,7.0,88,-99.99,,,-99.99,,2013-03-26 02:32:00,
2013-03-25 21:43:00,17.0,14.0,-100.00,WNW,300,6.0,7.0,88,-99.99,,,-99.99,,2013-03-26 02:43:00,
2013-03-25 21:52:00,17.0,14.0,-100.00,WNW,300,6.0,7.0,88,-99.99,,,-99.99,,2013-03-26 02:52:00,
2013-03-25 22:02:00,17.0,14.0,-100.00,WNW,300,6.0,7.0,88,-99.99,,,-99.99,,2013-03-26 03:02:00,
2013-03-25 22:10:00,16.0,13.0,-100.00,WNW,290,6.0,6.0,90,-99.99,,,-99.99,,2013-03-26 03:10:00,
2013-03-25 22:34:00,16.0,13.0,-100.00,WNW,290,6.0,6.0,90,-99.99,,,-99.99,,2013-03-26 03:34:00,
2013-03-25 22:43:00,16.0,13.0,-100.00,WNW,290,6.0,6.0,90,-99.99,,,-99.99,,2013-03-26 03:43:00,
2013-03-25 22:53:00,16.0,13.0,-100.00,WNW,290,6.0,6.0,90,-99.99,,,-99.99,,2013-03-26 03:53:00,
2013-03-25 23:03:00,16.0,13.0,-100.00,WNW,290,6.0,6.0,90,-99.99,,,-99.99,,2013-03-26 04:03:00,
2013-03-25 23:33:00,13.0,12.0,-100.00,WNW,290,6.0,7.0,94,-99.99,,,-99.99,,2013-03-26 04:33:00,
2013-03-25 23:43:00,13.0,12.0,-100.00,WNW,290,6.0,7.0,94,-99.99,,,-99.99,,2013-03-26 04:43:00,
2013-03-25 23:53:00,13.0,12.0,-100.00,WNW,290,6.0,7.0,94,-99.99,,,-99.99,,2013-03-26 04:53:00,